createdAt,value
2022-10-22T00:01:09.988Z,11.70
2022-10-22T00:03:36.280Z,11.23
2022-10-22T00:06:02.542Z,11.80
2022-10-22T00:08:28.799Z,11.57
2022-10-22T00:10:55.090Z,11.93
2022-10-22T00:13:21.396Z,11.67
2022-10-22T00:15:47.628Z,11.33
2022-10-22T00:18:13.893Z,10.90
2022-10-22T00:20:40.145Z,11.87
2022-10-22T00:23:06.397Z,11.53
2022-10-22T00:25:33.958Z,10.93
2022-10-22T00:28:00.167Z,10.83
2022-10-22T00:30:26.386Z,11.63
2022-10-22T00:32:52.581Z,10.77
2022-10-22T00:35:18.871Z,11.77
2022-10-22T00:37:45.081Z,11.40
2022-10-22T00:40:11.742Z,10.93
2022-10-22T00:42:38.280Z,10.90
2022-10-22T00:45:04.788Z,11.30
2022-10-22T00:47:32.766Z,11.37
2022-10-22T00:49:59.987Z,11.40
2022-10-22T00:52:29.420Z,11.50
2022-10-22T00:54:56.098Z,11.83
2022-10-22T00:57:22.608Z,11.60
2022-10-22T00:59:48.992Z,11.70
2022-10-22T01:02:15.947Z,11.80
2022-10-22T01:04:42.637Z,10.93
2022-10-22T01:07:15.018Z,11.63
2022-10-22T01:09:44.823Z,11.57
2022-10-22T01:12:22.595Z,11.97
2022-10-22T01:15:07.768Z,11.80
2022-10-22T01:18:00.381Z,11.00
2022-10-22T01:20:48.343Z,11.90
2022-10-22T01:23:33.486Z,10.60
2022-10-22T01:26:18.492Z,11.33
2022-10-22T01:28:50.835Z,10.50
2022-10-22T01:31:18.090Z,10.87
2022-10-22T01:33:45.308Z,11.13
2022-10-22T01:36:12.120Z,10.43
2022-10-22T01:38:39.572Z,11.20
2022-10-22T01:41:06.610Z,11.17
2022-10-22T01:43:32.816Z,10.60
2022-10-22T01:46:00.775Z,9.87
2022-10-22T01:48:29.828Z,10.63
2022-10-22T01:51:04.237Z,10.23
2022-10-22T01:53:40.727Z,10.20
2022-10-22T01:56:17.822Z,11.13
2022-10-22T01:59:02.577Z,10.00
2022-10-22T02:01:39.859Z,10.97
2022-10-22T02:04:10.206Z,10.53
2022-10-22T02:06:37.292Z,11.27
2022-10-22T02:09:04.172Z,10.80
2022-10-22T02:11:30.682Z,10.07
2022-10-22T02:13:59.530Z,10.43
2022-10-22T02:16:28.564Z,10.83
2022-10-22T02:18:56.739Z,10.27
2022-10-22T02:21:23.159Z,10.27
2022-10-22T02:23:49.582Z,10.20
2022-10-22T02:26:32.430Z,9.93
2022-10-22T02:29:03.427Z,10.70
2022-10-22T02:31:32.158Z,10.67
2022-10-22T02:34:01.243Z,10.37
2022-10-22T02:36:28.224Z,10.73
2022-10-22T02:38:54.841Z,10.07
2022-10-22T02:41:21.127Z,10.13
2022-10-22T02:43:53.243Z,10.07
2022-10-22T02:46:19.603Z,10.80
2022-10-22T02:48:45.907Z,10.03
2022-10-22T02:51:12.160Z,10.23
2022-10-22T02:53:38.377Z,10.43
2022-10-22T02:56:04.946Z,9.73
2022-10-22T02:58:31.165Z,9.80
2022-10-22T03:00:57.473Z,9.83
2022-10-22T03:03:23.761Z,9.93
2022-10-22T03:05:50.755Z,10.23
2022-10-22T03:08:17.055Z,9.57
2022-10-22T03:10:43.399Z,10.50
2022-10-22T03:13:09.651Z,10.10
2022-10-22T03:15:35.970Z,10.33
2022-10-22T03:18:02.203Z,9.67
2022-10-22T03:20:28.444Z,9.53
2022-10-22T03:22:55.632Z,10.30
2022-10-22T03:25:23.886Z,10.10
2022-10-22T03:27:51.487Z,9.87
2022-10-22T03:30:17.900Z,10.20
2022-10-22T03:32:44.135Z,9.67
2022-10-22T03:35:10.347Z,9.83
2022-10-22T03:37:36.858Z,9.97
2022-10-22T03:40:07.077Z,9.57
2022-10-22T03:42:33.355Z,9.73
2022-10-22T03:44:59.575Z,9.73
2022-10-22T03:47:25.855Z,9.30
2022-10-22T03:49:52.400Z,10.10
2022-10-22T03:52:18.763Z,10.23
2022-10-22T03:54:45.000Z,10.07
2022-10-22T03:57:11.533Z,10.13
2022-10-22T03:59:42.480Z,9.80
2022-10-22T04:02:09.336Z,9.23
2022-10-22T04:04:35.902Z,9.80
2022-10-22T04:07:03.079Z,9.23
2022-10-22T04:09:32.704Z,10.20
2022-10-22T04:11:59.068Z,10.70
2022-10-22T04:14:25.322Z,9.90
2022-10-22T04:16:51.524Z,9.37
2022-10-22T04:19:18.303Z,9.77
2022-10-22T04:21:44.632Z,9.77
2022-10-22T04:24:10.935Z,9.63
2022-10-22T04:26:37.181Z,10.00
2022-10-22T04:29:03.499Z,9.77
2022-10-22T04:31:29.725Z,9.73
2022-10-22T04:33:57.216Z,10.50
2022-10-22T04:36:23.762Z,9.90
2022-10-22T04:38:54.508Z,9.73
2022-10-22T04:41:22.232Z,9.53
2022-10-22T04:43:48.474Z,9.47
2022-10-22T04:46:15.962Z,9.73
2022-10-22T04:48:42.903Z,10.10
2022-10-22T04:51:10.452Z,9.43
2022-10-22T04:53:36.878Z,10.13
2022-10-22T04:56:07.168Z,10.37
2022-10-22T04:58:33.416Z,10.40
2022-10-22T05:00:59.668Z,10.23
2022-10-22T05:03:25.911Z,10.27
2022-10-22T05:05:52.133Z,9.40
2022-10-22T05:08:18.347Z,9.80
2022-10-22T05:10:44.560Z,9.60
2022-10-22T05:13:12.330Z,10.30
2022-10-22T05:15:38.620Z,10.07
2022-10-22T05:18:04.883Z,10.20
2022-10-22T05:20:31.107Z,9.93
2022-10-22T05:22:57.387Z,9.27
2022-10-22T05:25:23.592Z,9.63
2022-10-22T05:27:50.394Z,9.50
2022-10-22T05:30:16.689Z,9.77
2022-10-22T05:32:43.058Z,10.27
2022-10-22T05:35:09.431Z,10.23
2022-10-22T05:37:35.650Z,10.03
2022-10-22T05:40:12.653Z,10.30
2022-10-22T05:42:48.106Z,9.77
2022-10-22T05:45:14.339Z,10.20
2022-10-22T05:47:40.561Z,10.10
2022-10-22T05:50:07.049Z,9.83
2022-10-22T05:52:33.254Z,9.93
2022-10-22T05:54:59.467Z,9.83
2022-10-22T05:57:25.682Z,9.97
2022-10-22T05:59:51.890Z,10.70
2022-10-22T06:02:18.158Z,9.93
2022-10-22T06:04:44.496Z,10.00
2022-10-22T06:07:14.191Z,10.97
2022-10-22T06:09:40.473Z,9.93
2022-10-22T06:12:10.727Z,9.83
2022-10-22T06:14:37.129Z,10.47
2022-10-22T06:17:03.360Z,10.33
2022-10-22T06:19:31.143Z,9.37
2022-10-22T06:21:57.458Z,9.87
2022-10-22T06:24:24.053Z,10.27
2022-10-22T06:26:51.478Z,10.03
2022-10-22T06:29:17.896Z,10.50
2022-10-22T06:31:44.120Z,10.23
2022-10-22T06:34:11.754Z,10.23
2022-10-22T06:36:38.106Z,10.37
2022-10-22T06:39:05.024Z,10.47
2022-10-22T06:41:31.254Z,10.70
2022-10-22T06:43:58.012Z,10.30
2022-10-22T06:46:24.607Z,10.43
2022-10-22T06:48:51.784Z,10.83
2022-10-22T06:51:18.659Z,11.37
2022-10-22T06:53:45.119Z,10.80
2022-10-22T06:56:13.548Z,10.03
2022-10-22T06:58:39.785Z,10.43
2022-10-22T07:01:07.448Z,10.97
2022-10-22T07:03:33.839Z,10.40
2022-10-22T07:06:03.872Z,11.53
2022-10-22T07:08:30.141Z,10.63
2022-10-22T07:10:56.584Z,12.03
2022-10-22T07:13:22.816Z,11.03
2022-10-22T07:15:53.261Z,10.63
2022-10-22T07:18:19.478Z,11.73
2022-10-22T07:20:46.795Z,11.07
2022-10-22T07:23:13.171Z,11.13
2022-10-22T07:25:39.386Z,10.97
2022-10-22T07:28:05.604Z,10.40
2022-10-22T07:30:31.852Z,11.00
2022-10-22T07:32:58.130Z,11.43
2022-10-22T07:35:24.355Z,11.33
2022-10-22T07:37:50.570Z,10.80
2022-10-22T07:40:16.888Z,10.57
2022-10-22T07:42:43.117Z,12.43
2022-10-22T07:45:09.493Z,11.60
2022-10-22T07:47:35.756Z,11.53
2022-10-22T07:50:01.980Z,11.63
2022-10-22T07:52:28.292Z,11.03
2022-10-22T07:54:54.528Z,10.90
2022-10-22T07:57:20.753Z,11.13
2022-10-22T07:59:46.991Z,11.53
2022-10-22T08:02:13.266Z,10.13
2022-10-22T08:04:39.477Z,11.23
2022-10-22T08:07:05.741Z,10.93
2022-10-22T08:09:32.004Z,11.47
2022-10-22T08:11:58.331Z,10.47
2022-10-22T08:14:24.552Z,10.80
2022-10-22T08:16:50.771Z,10.77
2022-10-22T08:19:18.827Z,10.47
2022-10-22T08:21:46.012Z,10.60
2022-10-22T08:24:12.752Z,10.80
2022-10-22T08:26:39.012Z,10.23
2022-10-22T08:29:05.356Z,10.00
2022-10-22T08:31:31.586Z,10.20
2022-10-22T08:33:57.805Z,10.17
2022-10-22T08:36:24.041Z,10.00
2022-10-22T08:38:50.291Z,10.23
2022-10-22T08:41:18.006Z,10.77
2022-10-22T08:43:47.255Z,10.57
2022-10-22T08:46:30.035Z,10.23
2022-10-22T08:48:58.402Z,10.20
2022-10-22T08:51:26.949Z,10.70
2022-10-22T08:54:02.178Z,9.97
2022-10-22T08:56:28.864Z,10.37
2022-10-22T08:59:15.350Z,11.10
2022-10-22T09:01:43.236Z,11.23
2022-10-22T09:04:16.258Z,10.30
2022-10-22T09:06:44.298Z,10.20
2022-10-22T09:09:16.478Z,10.63
2022-10-22T09:11:47.699Z,10.00
2022-10-22T09:16:55.756Z,10.23
2022-10-22T09:19:40.794Z,10.07
2022-10-22T09:22:25.293Z,10.50
2022-10-22T09:24:57.258Z,10.03
2022-10-22T09:27:27.002Z,9.23
2022-10-22T09:29:53.228Z,9.10
2022-10-22T09:32:19.803Z,9.60
2022-10-22T09:34:46.732Z,10.20
2022-10-22T09:37:16.051Z,10.23
2022-10-22T09:39:46.334Z,10.37
2022-10-22T09:42:14.867Z,9.63
2022-10-22T09:44:44.878Z,10.13
2022-10-22T09:47:42.623Z,9.57
2022-10-22T09:50:27.568Z,9.00
2022-10-22T09:53:12.229Z,9.50
2022-10-22T09:55:42.399Z,8.93
2022-10-22T09:58:15.525Z,8.83
2022-10-22T10:00:43.910Z,8.57
2022-10-22T10:03:17.452Z,8.80
2022-10-22T10:05:46.736Z,8.40
2022-10-22T10:08:14.064Z,9.03
2022-10-22T10:10:54.288Z,8.40
2022-10-22T10:13:23.980Z,8.47
2022-10-22T10:15:53.986Z,8.33
2022-10-22T10:18:31.515Z,8.10
2022-10-22T10:21:06.828Z,8.97
2022-10-22T10:23:46.017Z,8.73
2022-10-22T10:26:21.128Z,9.03
2022-10-22T10:28:58.333Z,8.87
2022-10-22T10:31:33.214Z,9.73
2022-10-22T10:34:18.368Z,9.10
2022-10-22T10:36:48.931Z,9.57
2022-10-22T10:39:24.047Z,8.87
2022-10-22T10:41:53.063Z,9.37
2022-10-22T10:44:38.298Z,8.57
2022-10-22T10:47:07.508Z,9.50
2022-10-22T10:49:35.459Z,9.77
2022-10-22T10:52:01.716Z,9.77
2022-10-22T10:54:46.604Z,9.60
2022-10-22T10:57:31.716Z,9.70
2022-10-22T11:00:06.805Z,10.63
2022-10-22T11:02:52.206Z,9.33
2022-10-22T11:05:29.959Z,9.57
2022-10-22T11:08:02.051Z,8.60
2022-10-22T11:10:39.228Z,9.27
2022-10-22T11:13:14.058Z,9.60
2022-10-22T11:15:41.209Z,9.90
2022-10-22T11:18:14.494Z,10.33
2022-10-22T11:20:48.711Z,10.30
2022-10-22T11:23:20.378Z,10.80
2022-10-22T11:25:48.890Z,9.87
2022-10-22T11:28:19.436Z,9.37
2022-10-22T11:30:48.098Z,9.20
2022-10-22T11:33:19.654Z,9.60
2022-10-22T11:35:46.327Z,8.37
2022-10-22T11:38:15.072Z,8.67
2022-10-22T11:40:52.500Z,8.30
2022-10-22T11:43:32.556Z,8.67
2022-10-22T11:46:03.263Z,8.97
2022-10-22T11:48:35.738Z,7.83
2022-10-22T11:51:02.368Z,7.43
2022-10-22T11:53:35.108Z,7.23
2022-10-22T11:56:04.126Z,7.80
2022-10-22T11:58:42.136Z,6.97
2022-10-22T12:01:08.337Z,6.90
2022-10-22T12:03:39.790Z,7.00
2022-10-22T12:06:08.378Z,6.47
2022-10-22T12:08:41.746Z,5.90
2022-10-22T12:11:10.763Z,5.57
2022-10-22T12:13:58.674Z,5.57
2022-10-22T12:16:32.393Z,5.93
2022-10-22T12:19:14.019Z,5.50
2022-10-22T12:21:42.109Z,5.60
2022-10-22T12:24:12.830Z,5.60
2022-10-22T12:26:39.094Z,4.90
2022-10-22T12:29:09.454Z,4.77
2022-10-22T12:31:36.960Z,5.00
2022-10-22T12:34:03.280Z,4.27
2022-10-22T12:36:30.240Z,4.67
2022-10-22T12:38:59.601Z,4.23
2022-10-22T12:41:35.969Z,4.40
2022-10-22T12:44:03.570Z,4.53
2022-10-22T12:46:31.348Z,3.93
2022-10-22T12:49:01.543Z,3.90
2022-10-22T12:51:28.221Z,3.70
2022-10-22T12:53:59.965Z,3.40
2022-10-22T12:56:31.981Z,3.00
2022-10-22T12:59:18.026Z,3.00
2022-10-22T13:01:44.304Z,3.10
2022-10-22T13:04:16.539Z,2.97
2022-10-22T13:06:47.079Z,3.20
2022-10-22T13:09:23.912Z,2.87
2022-10-22T13:11:59.112Z,2.67
2022-10-22T13:14:25.300Z,2.93
2022-10-22T13:17:06.817Z,3.17
2022-10-22T13:19:53.299Z,3.07
2022-10-22T13:22:38.758Z,3.07
2022-10-22T13:25:20.072Z,2.40
2022-10-22T13:27:50.969Z,2.60
2022-10-22T13:30:20.857Z,2.43
2022-10-22T13:33:06.695Z,2.50
2022-10-22T13:35:35.724Z,2.23
2022-10-22T13:38:02.123Z,2.60
2022-10-22T13:40:29.556Z,2.63
2022-10-22T13:42:55.768Z,3.00
2022-10-22T13:45:22.057Z,2.50
2022-10-22T13:47:50.909Z,2.20
2022-10-22T13:50:18.383Z,2.27
2022-10-22T13:52:46.236Z,2.50
2022-10-22T13:55:14.127Z,2.73
2022-10-22T13:57:40.474Z,2.63
2022-10-22T14:00:07.116Z,2.20
2022-10-22T14:02:33.386Z,2.53
2022-10-22T14:05:05.300Z,2.20
2022-10-22T14:07:32.333Z,2.43
2022-10-22T14:09:58.538Z,2.43
2022-10-22T14:12:25.126Z,2.00
2022-10-22T14:14:51.362Z,2.50
2022-10-22T14:17:17.737Z,2.47
2022-10-22T14:19:45.553Z,2.20
2022-10-22T14:22:15.751Z,2.60
2022-10-22T14:24:42.018Z,2.43
2022-10-22T14:27:09.494Z,2.67
2022-10-22T14:29:35.715Z,2.43
2022-10-22T14:32:01.948Z,2.27
2022-10-22T14:34:28.186Z,2.50
2022-10-22T14:36:54.422Z,2.20
2022-10-22T14:39:21.584Z,2.50
2022-10-22T14:41:47.883Z,2.23
2022-10-22T14:44:14.858Z,2.80
2022-10-22T14:46:43.828Z,2.20
2022-10-22T14:49:10.381Z,2.50
2022-10-22T14:51:36.798Z,2.77
2022-10-22T14:54:03.080Z,2.30
2022-10-22T14:56:29.320Z,2.20
2022-10-22T14:58:55.572Z,2.37
2022-10-22T15:01:21.816Z,2.30
2022-10-22T15:03:48.084Z,2.57
2022-10-22T15:06:14.317Z,2.57
2022-10-22T15:08:40.590Z,2.40
2022-10-22T15:11:08.572Z,2.67
2022-10-22T15:13:35.389Z,2.53
2022-10-22T15:16:01.809Z,2.00
2022-10-22T15:18:28.088Z,2.40
2022-10-22T15:21:02.221Z,2.23
2022-10-22T15:23:28.844Z,2.17
2022-10-22T15:25:55.484Z,2.60
2022-10-22T15:28:21.995Z,2.40
2022-10-22T15:30:55.495Z,2.37
2022-10-22T15:33:22.053Z,2.43
2022-10-22T15:35:48.337Z,2.00
2022-10-22T15:38:14.550Z,2.10
2022-10-22T15:40:40.786Z,2.87
2022-10-22T15:43:07.011Z,1.97
2022-10-22T15:45:33.229Z,2.10
2022-10-22T15:47:59.512Z,2.30
2022-10-22T15:50:25.793Z,2.10
2022-10-22T15:52:52.128Z,2.23
2022-10-22T15:55:18.843Z,2.47
2022-10-22T15:57:45.303Z,2.03
2022-10-22T16:00:12.006Z,2.90
2022-10-22T16:02:38.220Z,2.63
2022-10-22T16:05:04.597Z,2.67
2022-10-22T16:07:31.096Z,2.57
2022-10-22T16:09:58.107Z,2.33
2022-10-22T16:12:24.383Z,2.87
2022-10-22T16:14:50.982Z,2.77
2022-10-22T16:17:17.537Z,2.20
2022-10-22T16:19:43.750Z,2.50
2022-10-22T16:22:11.462Z,2.90
2022-10-22T16:24:40.823Z,2.73
2022-10-22T16:27:07.773Z,2.33
2022-10-22T16:29:34.083Z,2.53
2022-10-22T16:32:00.293Z,2.93
2022-10-22T16:34:27.174Z,2.93
2022-10-22T16:36:53.958Z,2.67
2022-10-22T16:39:20.176Z,2.70
2022-10-22T16:41:46.786Z,3.20
2022-10-22T16:44:13.322Z,3.50
2022-10-22T16:46:39.779Z,3.47
2022-10-22T16:49:06.803Z,2.90
2022-10-22T16:51:33.326Z,3.67
2022-10-22T16:53:59.806Z,3.23
2022-10-22T16:56:26.360Z,3.33
2022-10-22T16:58:53.870Z,3.53
2022-10-22T17:01:21.328Z,3.60
2022-10-22T17:03:47.939Z,3.43
2022-10-22T17:06:14.178Z,3.60
2022-10-22T17:08:40.913Z,3.80
2022-10-22T17:11:11.734Z,4.47
2022-10-22T17:13:42.190Z,4.73
2022-10-22T17:16:09.893Z,5.03
2022-10-22T17:18:37.004Z,4.37
2022-10-22T17:21:04.196Z,4.83
2022-10-22T17:23:30.418Z,4.67
2022-10-22T17:26:01.371Z,4.50
2022-10-22T17:28:28.042Z,5.10
2022-10-22T17:31:07.333Z,5.40
2022-10-22T17:33:37.112Z,5.30
2022-10-22T17:36:10.721Z,5.13
2022-10-22T17:38:37.611Z,5.37
2022-10-22T17:41:04.339Z,5.30
2022-10-22T17:43:33.288Z,5.10
2022-10-22T17:46:03.435Z,5.40
2022-10-22T17:48:29.652Z,5.20
2022-10-22T17:50:59.142Z,5.17
2022-10-22T17:53:28.173Z,5.20
2022-10-22T17:56:01.612Z,5.87
2022-10-22T17:58:31.112Z,5.97
2022-10-22T18:00:57.987Z,6.20
2022-10-22T18:03:24.731Z,5.53
2022-10-22T18:05:50.982Z,5.57
2022-10-22T18:08:17.222Z,5.80
2022-10-22T18:10:43.448Z,5.10
2022-10-22T18:13:09.684Z,5.07
2022-10-22T18:15:36.422Z,5.23
2022-10-22T18:18:03.208Z,5.07
2022-10-22T18:20:29.464Z,5.50
2022-10-22T18:22:55.693Z,4.93
2022-10-22T18:25:22.064Z,4.87
2022-10-22T18:27:48.389Z,5.33
2022-10-22T18:30:14.631Z,4.73
2022-10-22T18:32:40.834Z,4.50
2022-10-22T18:35:07.335Z,4.50
2022-10-22T18:37:38.071Z,4.27
2022-10-22T18:40:05.094Z,4.83
2022-10-22T18:42:33.594Z,4.50
2022-10-22T18:45:01.744Z,4.40
2022-10-22T18:47:27.972Z,4.43
2022-10-22T18:49:54.192Z,4.30
2022-10-22T18:52:20.442Z,4.00
2022-10-22T18:54:46.645Z,3.83
2022-10-22T18:57:12.874Z,4.30
2022-10-22T18:59:39.089Z,3.53
2022-10-22T19:02:06.935Z,3.60
2022-10-22T19:04:36.675Z,3.40
2022-10-22T19:07:03.964Z,4.07
2022-10-22T19:09:30.292Z,4.33
2022-10-22T19:11:56.535Z,3.80
2022-10-22T19:14:22.744Z,4.40
2022-10-22T19:16:49.163Z,4.47
2022-10-22T19:19:19.464Z,4.13
2022-10-22T19:21:46.256Z,4.20
2022-10-22T19:24:13.636Z,6.27
2022-10-22T19:26:39.981Z,5.03
2022-10-22T19:29:06.215Z,4.87
2022-10-22T19:31:32.896Z,4.90
2022-10-22T19:33:59.990Z,5.50
2022-10-22T19:36:30.064Z,4.77
2022-10-22T19:38:56.390Z,5.43
2022-10-22T19:41:23.803Z,5.03
2022-10-22T19:43:50.902Z,5.27
2022-10-22T19:46:17.681Z,5.00
2022-10-22T19:51:16.868Z,5.10
2022-10-22T19:53:43.162Z,5.00
2022-10-22T19:56:10.119Z,5.03
2022-10-22T19:58:38.207Z,4.80
2022-10-22T20:01:05.657Z,4.90
2022-10-22T20:03:32.409Z,5.00
2022-10-22T20:05:58.655Z,4.67
2022-10-22T20:08:24.884Z,4.73
2022-10-22T20:10:51.684Z,4.63
2022-10-22T20:13:18.447Z,5.50
2022-10-22T20:15:47.293Z,5.13
2022-10-22T20:18:13.559Z,5.03
2022-10-22T20:20:40.003Z,5.07
2022-10-22T20:23:08.538Z,4.77
2022-10-22T20:25:35.526Z,5.40
2022-10-22T20:28:02.071Z,5.37
2022-10-22T20:30:28.292Z,5.07
2022-10-22T20:32:54.528Z,5.00
2022-10-22T20:35:20.749Z,4.00
2022-10-22T20:37:47.421Z,4.20
2022-10-22T20:40:13.642Z,4.17
2022-10-22T20:42:40.261Z,4.53
2022-10-22T20:45:06.983Z,4.57
2022-10-22T20:47:44.430Z,4.60
2022-10-22T20:50:18.585Z,4.43
2022-10-22T20:52:44.871Z,4.60
2022-10-22T20:55:11.455Z,4.60
2022-10-22T20:57:37.923Z,4.47
2022-10-22T21:00:04.417Z,4.60
2022-10-22T21:02:30.657Z,4.33
2022-10-22T21:04:57.847Z,4.00
2022-10-22T21:07:25.045Z,4.40
2022-10-22T21:09:51.259Z,4.80
2022-10-22T21:12:17.494Z,4.07
2022-10-22T21:14:43.714Z,4.17
2022-10-22T21:17:09.968Z,4.00
2022-10-22T21:19:36.283Z,3.80
2022-10-22T21:22:02.582Z,4.27
2022-10-22T21:24:28.865Z,4.00
2022-10-22T21:26:55.187Z,4.37
2022-10-22T21:29:22.817Z,3.93
2022-10-22T21:37:37.968Z,4.00
2022-10-22T21:40:04.405Z,4.10
2022-10-22T21:42:30.640Z,4.53
2022-10-22T21:44:56.915Z,4.40
2022-10-22T21:47:23.220Z,5.07
2022-10-22T21:49:49.447Z,4.23
2022-10-22T21:52:15.677Z,4.43
2022-10-22T21:54:41.919Z,4.30
2022-10-22T21:57:08.149Z,3.97
2022-10-22T21:59:37.532Z,3.60
2022-10-22T22:02:05.834Z,4.00
2022-10-22T22:04:32.499Z,3.80
2022-10-22T22:06:58.714Z,3.73
2022-10-22T22:09:24.963Z,3.70
2022-10-22T22:11:51.190Z,3.57
2022-10-22T22:14:17.398Z,4.07
2022-10-22T22:16:43.612Z,3.27
2022-10-22T22:19:10.041Z,3.90
2022-10-22T22:21:39.151Z,3.83
2022-10-22T22:24:05.687Z,3.63
2022-10-22T22:26:32.323Z,3.37
2022-10-22T22:28:59.520Z,4.07
2022-10-22T22:31:27.665Z,3.93
2022-10-22T22:34:00.933Z,4.13
2022-10-22T22:36:27.367Z,3.47
2022-10-22T22:38:54.157Z,3.77
2022-10-22T22:41:20.376Z,3.70
2022-10-22T22:43:46.641Z,3.93
2022-10-22T22:46:12.867Z,4.17
2022-10-22T22:48:39.117Z,4.13
2022-10-22T22:51:05.883Z,3.80
2022-10-22T22:53:32.614Z,3.60
2022-10-22T22:56:06.036Z,4.10
2022-10-22T22:58:32.555Z,3.60
2022-10-22T23:01:13.816Z,3.87
2022-10-22T23:03:40.140Z,3.60
2022-10-22T23:06:06.573Z,3.87
2022-10-22T23:08:33.172Z,4.10
2022-10-22T23:11:06.342Z,3.73
2022-10-22T23:13:33.536Z,4.33
2022-10-22T23:15:59.731Z,4.00
2022-10-22T23:18:26.016Z,4.50
2022-10-22T23:20:52.635Z,4.60
2022-10-22T23:23:18.843Z,4.50
2022-10-22T23:25:45.067Z,4.83
2022-10-22T23:28:11.298Z,4.37
2022-10-22T23:30:41.434Z,4.33
2022-10-22T23:33:08.251Z,4.53
2022-10-22T23:35:34.498Z,4.97
2022-10-22T23:38:00.710Z,4.47
2022-10-22T23:40:26.923Z,4.57
2022-10-22T23:42:53.134Z,4.97
2022-10-22T23:45:19.355Z,4.73
2022-10-22T23:47:45.556Z,4.90
2022-10-22T23:50:13.001Z,4.90
2022-10-22T23:52:39.354Z,5.17
2022-10-22T23:55:05.988Z,5.73
2022-10-22T23:57:32.204Z,5.47
2022-10-22T23:59:58.487Z,5.90
